Time;durP1;ratioP1;P1;durP2;ratioP2;P2;SDS_P1;SDS_P2;PMS_P1;PMS_P2;Temp;Humidity;BMP_temperature;BMP_pressure;BME280_temperature;BME280_humidity;BME280_pressure;Samples;Min_cycle;Max_cycle;Signal;HPM_P1;HPM_P2
2020/12/13 00:02:20;;;;;;;30.07;18.43;;;;;;;5.24;100.00;94532.19;5075949;28;20283;-70
2020/12/13 00:04:47;;;;;;;34.13;21.60;;;;;;;5.27;100.00;94543.75;5072997;28;20664;-69
2020/12/13 00:07:16;;;;;;;37.47;22.60;;;;;;;5.26;100.00;94542.97;5072637;28;20645;-68
2020/12/13 00:09:43;;;;;;;52.57;31.53;;;;;;;5.31;100.00;94548.03;5072752;28;20696;-69
2020/12/13 00:12:09;;;;;;;68.37;38.07;;;;;;;5.19;100.00;94547.72;5072848;28;20199;-68
2020/12/13 00:14:36;;;;;;;61.23;35.30;;;;;;;5.22;100.00;94554.13;5072761;28;20203;-70
2020/12/13 00:17:03;;;;;;;59.93;34.10;;;;;;;5.20;100.00;94551.81;5072516;28;20220;-68
2020/12/13 00:19:30;;;;;;;63.07;33.90;;;;;;;5.25;100.00;94550.97;5072713;28;20200;-69
2020/12/13 00:21:57;;;;;;;61.50;33.63;;;;;;;5.27;100.00;94551.47;5072345;28;20211;-69
2020/12/13 00:24:25;;;;;;;61.17;34.03;;;;;;;5.28;100.00;94558.88;5072465;28;20730;-69
2020/12/13 00:26:53;;;;;;;57.40;31.73;;;;;;;5.29;100.00;94557.06;5072485;28;20856;-69
2020/12/13 00:29:19;;;;;;;49.60;28.93;;;;;;;5.34;100.00;94550.03;5072518;28;20224;-68
2020/12/13 00:31:46;;;;;;;68.73;34.63;;;;;;;5.33;100.00;94550.34;5072267;28;20217;-69
2020/12/13 00:34:13;;;;;;;69.03;35.60;;;;;;;5.29;100.00;94544.97;5072456;28;20218;-70
2020/12/13 00:36:40;;;;;;;109.33;46.27;;;;;;;5.28;100.00;94543.44;5072520;28;20230;-69
2020/12/13 00:39:06;;;;;;;112.17;47.90;;;;;;;5.30;100.00;94545.75;5072418;28;20197;-69
2020/12/13 00:41:34;;;;;;;113.10;48.90;;;;;;;5.29;100.00;94550.13;5072305;28;20228;-70
2020/12/13 00:44:01;;;;;;;130.70;52.80;;;;;;;5.30;100.00;94554.22;5072303;28;20195;-68
2020/12/13 00:46:28;;;;;;;122.80;52.77;;;;;;;5.25;100.00;94553.53;5072280;28;20193;-69
2020/12/13 00:48:55;;;;;;;119.90;53.27;;;;;;;5.23;100.00;94555.66;5071956;28;20193;-67
2020/12/13 00:51:26;;;;;;;121.87;52.40;;;;;;;5.24;100.00;94552.00;5072148;28;20206;-69
2020/12/13 00:53:53;;;;;;;116.70;49.13;;;;;;;5.27;100.00;94552.22;5072078;28;20204;-69
2020/12/13 00:56:20;;;;;;;110.23;48.50;;;;;;;5.29;100.00;94549.34;5071797;28;20683;-68
2020/12/13 00:58:48;;;;;;;109.20;51.03;;;;;;;5.27;100.00;94552.22;5072085;28;20196;-67
2020/12/13 01:01:15;;;;;;;103.87;48.73;;;;;;;5.29;100.00;94555.28;5071854;28;20197;-69
2020/12/13 01:03:42;;;;;;;101.80;47.03;;;;;;;5.34;100.00;94546.69;5071691;28;20205;-68
2020/12/13 01:06:08;;;;;;;81.57;40.47;;;;;;;5.31;100.00;94536.97;5071720;28;20192;-68
2020/12/13 01:08:35;;;;;;;79.87;39.20;;;;;;;5.30;100.00;94541.34;5071802;28;20203;-68
2020/12/13 01:11:02;;;;;;;99.20;44.20;;;;;;;5.30;100.00;94538.00;5072062;28;20196;-68
2020/12/13 01:13:30;;;;;;;86.47;40.33;;;;;;;5.27;100.00;94534.19;5071559;28;20583;-68
2020/12/13 01:15:58;;;;;;;68.87;34.47;;;;;;;5.30;100.00;94538.78;5071068;28;20201;-69
2020/12/13 01:18:24;;;;;;;58.43;32.20;;;;;;;5.31;100.00;94539.53;5071249;28;20610;-68
2020/12/13 01:20:54;;;;;;;75.77;37.27;;;;;;;5.26;100.00;94542.19;5071659;28;20192;-68
2020/12/13 01:23:21;;;;;;;75.57;37.03;;;;;;;5.31;100.00;94545.47;5071321;28;20203;-68
2020/12/13 01:25:48;;;;;;;66.27;33.37;;;;;;;5.11;100.00;94549.13;5071466;28;20196;-69
2020/12/13 01:28:14;;;;;;;60.83;32.03;;;;;;;5.03;100.00;94539.47;5071219;28;20314;-68
2020/12/13 01:30:41;;;;;;;69.30;34.43;;;;;;;5.05;100.00;94541.75;5071083;28;20208;-68
2020/12/13 01:33:09;;;;;;;66.70;35.57;;;;;;;5.05;100.00;94541.75;5071310;28;20574;-68
2020/12/13 01:35:36;;;;;;;59.17;31.33;;;;;;;5.09;100.00;94546.06;5071480;28;20196;-68
2020/12/13 01:38:02;;;;;;;57.30;32.33;;;;;;;5.07;100.00;94547.41;5071117;28;20258;-68
2020/12/13 01:40:29;;;;;;;54.03;29.87;;;;;;;5.02;100.00;94540.53;5070765;28;20224;-69
2020/12/13 01:42:56;;;;;;;54.77;31.20;;;;;;;4.99;100.00;94543.66;5071229;28;20207;-67
2020/12/13 01:45:23;;;;;;;59.90;32.13;;;;;;;5.01;100.00;94533.84;5071053;28;20669;-67
2020/12/13 01:47:51;;;;;;;68.17;33.13;;;;;;;5.02;100.00;94545.66;5071083;28;20189;-69
2020/12/13 01:50:31;;;;;;;52.27;30.50;;;;;;;5.02;100.00;94543.09;5070928;28;20193;-68
2020/12/13 01:53:14;;;;;;;57.57;29.67;;;;;;;5.02;100.00;94550.81;5070680;28;20226;-68
2020/12/13 01:55:42;;;;;;;56.60;31.30;;;;;;;5.04;100.00;94538.41;5070783;28;20192;-69
2020/12/13 01:58:15;;;;;;;59.20;30.17;;;;;;;4.99;100.00;94543.66;5070707;28;20237;-67
2020/12/13 02:00:46;;;;;;;44.60;27.07;;;;;;;5.03;100.00;94536.88;5070727;28;20200;-69
2020/12/13 02:03:19;;;;;;;53.83;28.90;;;;;;;5.05;100.00;94545.09;5071166;28;20202;-70
2020/12/13 02:05:55;;;;;;;50.40;29.30;;;;;;;5.07;100.00;94543.03;5070560;28;20199;-69
2020/12/13 02:08:23;;;;;;;51.90;29.17;;;;;;;5.03;100.00;94549.00;5070501;28;20267;-69
2020/12/13 02:10:51;;;;;;;53.73;30.07;;;;;;;5.01;100.00;94548.53;5070501;28;20726;-69
2020/12/13 02:13:18;;;;;;;52.90;30.73;;;;;;;4.99;100.00;94546.22;5070523;28;20204;-68
2020/12/13 02:15:45;;;;;;;137.13;58.33;;;;;;;5.01;100.00;94551.09;5070611;28;20193;-68
2020/12/13 02:18:12;;;;;;;112.33;50.00;;;;;;;4.96;100.00;94551.94;5070416;28;20232;-69
2020/12/13 02:20:39;;;;;;;65.13;34.10;;;;;;;5.01;100.00;94546.72;5070524;28;20199;-68
2020/12/13 02:23:10;;;;;;;51.57;28.73;;;;;;;5.01;100.00;94554.44;5070566;28;20192;-68
2020/12/13 02:25:37;;;;;;;36.07;23.87;;;;;;;5.00;100.00;94549.56;5070387;28;20231;-67
2020/12/13 02:28:04;;;;;;;38.43;24.03;;;;;;;4.99;100.00;94546.22;5069550;28;20723;-69
2020/12/13 02:30:31;;;;;;;50.63;30.27;;;;;;;4.94;100.00;94560.97;5070194;28;20192;-68
2020/12/13 02:32:58;;;;;;;51.20;30.70;;;;;;;4.90;100.00;94558.19;5070298;28;20204;-69
2020/12/13 02:35:25;;;;;;;79.73;42.77;;;;;;;4.91;100.00;94554.59;5070128;28;20675;-68
2020/12/13 02:37:52;;;;;;;69.53;38.07;;;;;;;4.95;100.00;94565.09;5070004;28;20267;-68
2020/12/13 02:40:20;;;;;;;63.73;37.00;;;;;;;4.93;100.00;94572.34;5070102;28;20232;-68
2020/12/13 02:42:47;;;;;;;69.33;37.80;;;;;;;4.86;100.00;94572.69;5070193;28;20236;-67
2020/12/13 02:45:14;;;;;;;65.23;37.20;;;;;;;4.86;100.00;94577.81;5070309;28;20647;-67
2020/12/13 02:47:41;;;;;;;72.33;39.00;;;;;;;4.96;100.00;94575.09;5070050;28;20205;-69
2020/12/13 02:50:08;;;;;;;69.77;36.40;;;;;;;5.13;100.00;94577.91;5070001;28;20653;-69
2020/12/13 02:52:35;;;;;;;82.13;41.87;;;;;;;5.02;100.00;94574.00;5069917;28;20204;-67
2020/12/13 02:55:02;;;;;;;190.50;81.40;;;;;;;5.01;100.00;94575.03;5069930;28;20643;-67
2020/12/13 02:57:29;;;;;;;109.47;49.70;;;;;;;5.00;100.00;94570.91;5069970;28;20224;-68
2020/12/13 02:59:56;;;;;;;58.30;29.87;;;;;;;4.99;100.00;94581.50;5069933;28;20244;-64
2020/12/13 03:02:23;;;;;;;76.90;45.50;;;;;;;4.95;100.00;94581.28;5069885;28;20188;-70
2020/12/13 03:04:50;;;;;;;99.80;58.00;;;;;;;5.00;100.00;94583.78;5070105;28;20196;-68
2020/12/13 03:07:16;;;;;;;96.50;56.50;;;;;;;5.01;100.00;94590.47;5069920;28;20199;-70
2020/12/13 03:09:43;;;;;;;65.93;41.50;;;;;;;4.98;100.00;94585.13;5069825;28;20271;-67
2020/12/13 03:12:10;;;;;;;57.37;35.60;;;;;;;4.91;100.00;94585.47;5069734;28;20199;-67
2020/12/13 03:14:38;;;;;;;52.47;33.07;;;;;;;4.93;100.00;94585.19;5069724;28;20204;-67
2020/12/13 03:17:05;;;;;;;45.77;28.93;;;;;;;4.90;100.00;94583.16;5069711;28;20276;-69
2020/12/13 03:19:32;;;;;;;40.43;26.23;;;;;;;4.83;100.00;94586.13;5070150;28;20200;-69
2020/12/13 03:21:59;;;;;;;35.30;23.37;;;;;;;4.83;100.00;94583.53;5069687;28;20192;-69
2020/12/13 03:24:26;;;;;;;35.10;23.30;;;;;;;4.72;100.00;94587.28;5070092;28;20196;-68
2020/12/13 03:26:53;;;;;;;38.90;22.70;;;;;;;4.77;100.00;94587.22;5069697;28;20201;-69
2020/12/13 03:29:19;;;;;;;41.70;23.30;;;;;;;4.75;100.00;94584.16;5069524;28;20207;-66
2020/12/13 03:31:47;;;;;;;35.00;22.40;;;;;;;4.76;100.00;94585.69;5069368;28;20223;-68
2020/12/13 03:34:14;;;;;;;39.43;24.43;;;;;;;4.78;100.00;94586.94;5069561;28;20220;-69
2020/12/13 03:36:41;;;;;;;36.97;22.93;;;;;;;4.78;100.00;94590.56;5069370;28;20188;-67
2020/12/13 03:39:08;;;;;;;34.90;22.07;;;;;;;4.76;100.00;94594.19;5070750;28;20200;-69
2020/12/13 03:41:35;;;;;;;39.13;23.93;;;;;;;4.73;100.00;94588.81;5073014;28;20224;-67
2020/12/13 03:44:01;;;;;;;40.37;25.50;;;;;;;4.68;100.00;94594.78;5073164;28;20192;-69
2020/12/13 03:46:28;;;;;;;38.37;23.73;;;;;;;4.69;100.00;94592.97;5073257;28;20668;-68
2020/12/13 03:48:56;;;;;;;34.77;22.77;;;;;;;4.69;100.00;94600.69;5073371;28;20675;-69
2020/12/13 03:51:23;;;;;;;30.73;20.30;;;;;;;4.68;100.00;94596.63;5073032;28;20200;-69
2020/12/13 03:53:49;;;;;;;32.93;20.73;;;;;;;4.68;100.00;94601.75;5073130;28;20192;-66
2020/12/13 03:56:16;;;;;;;31.33;20.07;;;;;;;4.69;100.00;94595.53;5073152;28;20200;-70
2020/12/13 03:58:43;;;;;;;31.83;18.63;;;;;;;4.73;100.00;94594.72;5072806;28;20227;-69
2020/12/13 04:01:10;;;;;;;24.97;16.23;;;;;;;4.69;100.00;94595.53;5072963;28;20291;-68
2020/12/13 04:03:36;;;;;;;22.70;14.73;;;;;;;4.69;100.00;94592.97;5073144;28;20197;-69
2020/12/13 04:06:04;;;;;;;22.47;14.40;;;;;;;4.64;100.00;94585.31;5072936;28;20297;-68
2020/12/13 04:08:31;;;;;;;21.20;13.73;;;;;;;4.69;100.00;94580.09;5072882;28;20651;-68
2020/12/13 04:10:58;;;;;;;21.70;13.83;;;;;;;4.63;100.00;94583.81;5072760;28;20192;-68
2020/12/13 04:13:24;;;;;;;22.67;14.23;;;;;;;4.66;100.00;94583.25;5072844;28;20204;-69
2020/12/13 04:15:51;;;;;;;20.10;13.73;;;;;;;4.73;100.00;94583.69;5072689;28;20192;-68
2020/12/13 04:18:18;;;;;;;93.83;57.97;;;;;;;4.64;100.00;94583.53;5072634;28;20232;-69
2020/12/13 04:20:45;;;;;;;72.83;44.67;;;;;;;4.59;100.00;94580.25;5072563;28;20588;-68
2020/12/13 04:23:13;;;;;;;33.27;21.23;;;;;;;4.60;100.00;94584.34;5072417;28;20201;-69
2020/12/13 04:25:39;;;;;;;26.00;17.50;;;;;;;4.58;100.00;94586.47;5072655;28;20219;-69
2020/12/13 04:28:06;;;;;;;20.83;14.00;;;;;;;4.67;100.00;94584.78;5072521;28;20738;-69
2020/12/13 04:30:33;;;;;;;17.40;12.37;;;;;;;4.70;100.00;94594.50;5072321;28;20581;-67
2020/12/13 04:33:00;;;;;;;15.90;11.40;;;;;;;4.67;100.00;94598.41;5072739;28;20200;-69
2020/12/13 04:35:26;;;;;;;16.70;11.77;;;;;;;4.59;100.00;94603.41;5072451;28;20197;-65
2020/12/13 04:37:53;;;;;;;20.67;13.80;;;;;;;4.50;100.00;94610.22;5072313;28;20254;-69
2020/12/13 04:40:21;;;;;;;24.00;15.77;;;;;;;4.45;100.00;94603.31;5071975;28;20188;-69
2020/12/13 04:42:50;;;;;;;29.13;17.47;;;;;;;4.45;100.00;94603.31;5072494;28;20275;-69
2020/12/13 04:45:18;;;;;;;31.73;18.97;;;;;;;4.45;100.00;94602.56;5072158;28;20196;-69
2020/12/13 04:48:04;;;;;;;33.20;21.60;;;;;;;4.37;100.00;94610.88;5072294;28;20238;-69
2020/12/13 04:50:33;;;;;;;35.63;22.40;;;;;;;4.31;100.00;94608.38;5071395;28;20204;-67
2020/12/13 04:53:03;;;;;;;38.33;22.43;;;;;;;3.95;100.00;94614.94;5072242;28;20199;-67
2020/12/13 04:55:31;;;;;;;40.50;25.07;;;;;;;3.77;100.00;94629.25;5072246;28;20220;-69
2020/12/13 04:57:58;;;;;;;43.30;26.80;;;;;;;3.75;100.00;94630.56;5071779;28;20232;-69
2020/12/13 05:00:27;;;;;;;47.67;28.23;;;;;;;3.75;100.00;94630.56;5071914;28;20616;-69
2020/12/13 05:02:54;;;;;;;47.30;28.63;;;;;;;3.70;100.00;94635.72;5071717;28;20206;-68
2020/12/13 05:05:21;;;;;;;48.93;29.17;;;;;;;3.88;100.00;94635.84;5071731;28;20192;-67
2020/12/13 05:07:48;;;;;;;51.07;31.17;;;;;;;3.94;100.00;94639.09;5072027;28;20193;-69
2020/12/13 05:10:15;;;;;;;52.20;32.03;;;;;;;3.85;100.00;94645.88;5071617;28;20205;-66
2020/12/13 05:12:43;;;;;;;56.07;35.40;;;;;;;3.53;100.00;94637.97;5071737;28;20223;-67
2020/12/13 05:15:11;;;;;;;58.60;36.03;;;;;;;3.59;100.00;94636.84;5071718;28;20196;-67
2020/12/13 05:17:37;;;;;;;65.93;37.50;;;;;;;3.72;100.00;94636.25;5071496;28;20228;-67
2020/12/13 05:20:05;;;;;;;55.53;34.73;;;;;;;3.77;100.00;94633.63;5071465;28;20551;-64
2020/12/13 05:22:38;;;;;;;57.67;35.17;;;;;;;3.82;100.00;94631.78;5071310;28;20192;-67
2020/12/13 05:25:12;;;;;;;56.33;34.23;;;;;;;3.93;100.00;94629.88;5071521;28;20211;-67
2020/12/13 05:27:41;;;;;;;58.07;34.63;;;;;;;3.93;100.00;94634.25;5071769;28;20753;-68
2020/12/13 05:30:09;;;;;;;61.37;35.43;;;;;;;4.05;100.00;94627.69;5071371;28;20683;-67
2020/12/13 05:32:36;;;;;;;50.57;33.10;;;;;;;4.00;100.00;94624.41;5071139;28;20303;-66
2020/12/13 05:35:05;;;;;;;54.97;31.77;;;;;;;4.05;100.00;94625.13;5071075;28;20200;-67
2020/12/13 05:37:31;;;;;;;55.70;33.90;;;;;;;4.09;100.00;94622.75;5071056;28;20285;-68
2020/12/13 05:39:59;;;;;;;58.40;34.90;;;;;;;4.03;100.00;94631.59;5070874;28;20192;-68
2020/12/13 05:42:33;;;;;;;59.07;33.93;;;;;;;3.95;100.00;94632.16;5070792;28;20224;-69
2020/12/13 05:50:34;;;;;;;61.83;38.30;;;;;;;3.90;100.00;94644.03;5068188;28;20212;-69
2020/12/13 05:53:03;;;;;;;64.57;39.13;;;;;;;3.89;100.00;94652.00;5070923;28;20199;-67
2020/12/13 05:55:30;;;;;;;94.97;48.20;;;;;;;3.86;100.00;94652.56;5070793;28;20284;-69
2020/12/13 05:57:57;;;;;;;116.03;58.23;;;;;;;3.85;100.00;94653.59;5070504;28;20232;-69
2020/12/13 06:00:24;;;;;;;104.20;51.17;;;;;;;3.81;100.00;94663.66;5070665;28;20553;-68
2020/12/13 06:02:53;;;;;;;92.83;49.30;;;;;;;3.74;100.00;94662.41;5069780;28;20203;-67
2020/12/13 06:05:23;;;;;;;69.40;40.27;;;;;;;3.74;100.00;94659.84;5070901;28;20192;-65
2020/12/13 06:07:51;;;;;;;62.20;38.17;;;;;;;3.71;100.00;94666.31;5070651;28;20195;-67
2020/12/13 06:10:24;;;;;;;61.33;37.63;;;;;;;3.70;100.00;94679.41;5070615;28;20196;-66
2020/12/13 06:13:00;;;;;;;95.20;58.43;;;;;;;3.55;100.00;94682.88;5071022;28;20201;-67
2020/12/13 06:15:31;;;;;;;108.53;61.17;;;;;;;3.51;100.00;94688.81;5070626;28;20200;-66
2020/12/13 06:18:00;;;;;;;101.40;60.97;;;;;;;3.57;100.00;94685.19;5070448;28;20228;-65
2020/12/13 06:20:27;;;;;;;115.07;65.83;;;;;;;3.57;100.00;94682.59;5070436;28;20663;-68
2020/12/13 06:22:55;;;;;;;126.43;73.83;;;;;;;3.61;100.00;94694.63;5070432;28;20231;-67
2020/12/13 06:25:23;;;;;;;105.50;62.80;;;;;;;3.60;100.00;94702.59;5070206;28;20200;-66
2020/12/13 06:27:51;;;;;;;97.13;57.70;;;;;;;3.59;100.00;94706.19;5070453;28;20196;-67
2020/12/13 06:30:20;;;;;;;116.17;65.17;;;;;;;3.64;100.00;94706.16;5070356;28;20215;-67
2020/12/13 06:32:51;;;;;;;120.93;66.47;;;;;;;3.64;100.00;94709.50;5070104;28;20217;-67
2020/12/13 06:35:19;;;;;;;118.47;62.60;;;;;;;3.66;100.00;94704.09;5070435;28;20208;-68
2020/12/13 06:37:46;;;;;;;112.93;61.00;;;;;;;3.62;100.00;94706.44;5070076;28;20232;-68
2020/12/13 06:40:19;;;;;;;101.03;55.63;;;;;;;3.63;100.00;94708.00;5070023;28;20560;-67
2020/12/13 06:42:47;;;;;;;94.40;51.37;;;;;;;3.67;100.00;94709.00;5070212;28;20199;-66
2020/12/13 06:45:16;;;;;;;122.17;64.67;;;;;;;3.73;100.00;94715.63;5070241;28;20210;-67
2020/12/13 06:47:44;;;;;;;105.00;58.63;;;;;;;3.83;100.00;94709.63;5070198;28;20663;-68
2020/12/13 06:50:19;;;;;;;190.47;93.73;;;;;;;3.83;100.00;94710.41;5070062;28;20192;-67
2020/12/13 06:52:50;;;;;;;134.10;74.03;;;;;;;3.87;100.00;94710.63;5070144;28;20200;-68
2020/12/13 06:55:17;;;;;;;84.23;49.37;;;;;;;3.89;100.00;94708.53;5070010;28;20192;-68
2020/12/13 06:57:46;;;;;;;100.07;55.93;;;;;;;3.85;100.00;94712.69;5069806;28;20236;-66
2020/12/13 07:00:13;;;;;;;104.20;57.80;;;;;;;3.82;100.00;94718.38;5070165;28;20192;-68
2020/12/13 07:02:48;;;;;;;106.53;59.43;;;;;;;3.81;100.00;94721.97;5070232;28;20193;-66
2020/12/13 07:05:15;;;;;;;124.83;68.57;;;;;;;3.85;100.00;94720.38;5069959;28;20195;-67
2020/12/13 07:07:46;;;;;;;137.80;79.73;;;;;;;3.93;100.00;94730.09;5070158;28;20294;-68
2020/12/13 07:10:14;;;;;;;135.90;78.70;;;;;;;3.95;100.00;94732.38;5069767;28;20200;-68
2020/12/13 07:12:51;;;;;;;138.77;84.27;;;;;;;3.98;100.00;94732.63;5069864;28;20206;-69
2020/12/13 07:15:25;;;;;;;119.20;75.50;;;;;;;4.00;100.00;94743.41;5073140;28;20202;-69
2020/12/13 07:17:52;;;;;;;122.23;72.30;;;;;;;4.01;100.00;94742.38;5073758;28;20276;-65
2020/12/13 07:20:20;;;;;;;122.03;77.03;;;;;;;4.02;100.00;94743.91;5073782;28;20559;-69
2020/12/13 07:22:47;;;;;;;118.77;68.23;;;;;;;4.06;100.00;94744.91;5073607;28;20193;-68
2020/12/13 07:25:15;;;;;;;94.30;54.67;;;;;;;4.19;100.00;94738.34;5073741;28;20192;-68
2020/12/13 07:27:43;;;;;;;87.47;47.73;;;;;;;4.25;100.00;94748.31;5073945;28;20584;-69
2020/12/13 07:30:12;;;;;;;89.30;44.87;;;;;;;4.26;100.00;94749.09;5073637;28;20196;-68
2020/12/13 07:32:40;;;;;;;82.47;43.23;;;;;;;4.26;100.00;94749.84;5073552;28;20593;-67
2020/12/13 07:35:12;;;;;;;106.80;53.17;;;;;;;4.33;100.00;94734.88;5073495;28;20206;-68
2020/12/13 07:37:41;;;;;;;141.57;67.87;;;;;;;4.33;100.00;94734.88;5073609;28;20235;-68
2020/12/13 07:40:13;;;;;;;211.33;90.50;;;;;;;4.42;100.00;94749.72;5073249;28;20196;-69
2020/12/13 07:42:54;;;;;;;126.33;61.20;;;;;;;4.47;100.00;94745.28;5073387;28;20200;-69
2020/12/13 07:45:21;;;;;;;154.87;70.10;;;;;;;4.59;100.00;94752.63;5073346;28;20203;-69
2020/12/13 07:48:00;;;;;;;131.67;63.90;;;;;;;4.71;100.00;94747.88;5073117;28;20778;-67
2020/12/13 07:50:28;;;;;;;159.67;72.83;;;;;;;4.86;100.00;94752.06;5073012;28;20203;-66
2020/12/13 07:52:55;;;;;;;134.47;63.97;;;;;;;4.88;100.00;94758.47;5073230;28;20196;-67
2020/12/13 07:55:22;;;;;;;110.67;53.07;;;;;;;5.06;100.00;94762.91;5072970;28;20307;-69
2020/12/13 07:57:50;;;;;;;104.10;51.03;;;;;;;5.20;100.00;94773.28;5072833;28;20235;-68
2020/12/13 08:00:17;;;;;;;147.00;67.20;;;;;;;5.27;100.00;94767.81;5072844;28;20194;-67
2020/12/13 08:02:44;;;;;;;114.10;54.73;;;;;;;5.29;100.00;94768.28;5073042;28;20201;-69
2020/12/13 08:05:12;;;;;;;101.97;53.23;;;;;;;5.34;100.00;94776.72;5072810;28;20200;-69
2020/12/13 08:07:39;;;;;;;126.33;60.50;;;;;;;5.50;100.00;94777.28;5072778;28;20668;-69
2020/12/13 08:10:06;;;;;;;118.60;59.00;;;;;;;5.53;100.00;94781.88;5073099;28;20200;-69
2020/12/13 08:12:37;;;;;;;125.23;60.83;;;;;;;5.48;100.00;94774.22;5072617;28;20197;-68
2020/12/13 08:15:16;;;;;;;88.73;47.40;;;;;;;5.51;100.00;94779.59;5072683;28;20214;-68
2020/12/13 08:17:44;;;;;;;79.90;41.43;;;;;;;5.44;100.00;94783.53;5072698;28;20234;-67
2020/12/13 08:20:15;;;;;;;73.27;39.70;;;;;;;5.36;100.00;94789.31;5072578;28;20193;-68
2020/12/13 08:22:42;;;;;;;74.73;41.80;;;;;;;5.27;100.00;94790.97;5072461;28;20196;-69
2020/12/13 08:25:12;;;;;;;72.00;40.27;;;;;;;5.28;100.00;94795.09;5071774;28;20757;-68
2020/12/13 08:27:40;;;;;;;70.73;41.67;;;;;;;5.42;100.00;94785.63;5072487;28;20200;-67
2020/12/13 08:30:09;;;;;;;63.47;36.57;;;;;;;5.54;100.00;94788.56;5072768;28;20220;-68
2020/12/13 08:32:38;;;;;;;58.73;33.50;;;;;;;5.48;100.00;94784.53;5072181;28;20221;-69
2020/12/13 08:35:12;;;;;;;54.93;35.87;;;;;;;5.73;100.00;94784.16;5072347;28;20651;-70
2020/12/13 08:37:39;;;;;;;55.77;32.77;;;;;;;5.68;100.00;94784.22;5072193;28;20232;-70
2020/12/13 08:40:09;;;;;;;51.63;32.10;;;;;;;5.82;100.00;94795.41;5072074;28;20188;-70
2020/12/13 08:42:35;;;;;;;56.60;35.70;;;;;;;5.68;100.00;94789.38;5072197;28;20200;-70
2020/12/13 08:45:03;;;;;;;55.00;35.33;;;;;;;5.80;100.00;94787.16;5072186;28;20193;-70
2020/12/13 08:47:32;;;;;;;54.37;36.47;;;;;;;5.82;100.00;94782.50;5072210;28;20196;-70
2020/12/13 08:50:00;;;;;;;52.13;33.93;;;;;;;5.96;100.00;94783.34;5072070;28;20208;-69
2020/12/13 08:52:33;;;;;;;54.63;34.00;;;;;;;6.14;100.00;94778.44;5071963;28;20621;-69
2020/12/13 08:55:04;;;;;;;51.67;32.27;;;;;;;6.05;100.00;94791.22;5072128;28;20197;-70
2020/12/13 08:57:33;;;;;;;51.73;33.43;;;;;;;6.19;100.00;94793.81;5072143;28;20206;-70
2020/12/13 09:00:01;;;;;;;53.63;31.77;;;;;;;6.29;100.00;94783.34;5072010;28;20193;-71
2020/12/13 09:02:28;;;;;;;49.47;31.10;;;;;;;6.52;100.00;94792.00;5071750;28;20196;-68
2020/12/13 09:04:57;;;;;;;42.63;28.20;;;;;;;6.58;100.00;94796.78;5071832;28;20219;-71
2020/12/13 09:07:31;;;;;;;44.40;29.17;;;;;;;6.65;100.00;94794.59;5071941;28;20196;-69
2020/12/13 09:10:11;;;;;;;43.73;25.43;;;;;;;6.80;100.00;94796.91;5071787;28;20485;-70
2020/12/13 09:12:38;;;;;;;40.53;24.70;;;;;;;6.86;100.00;94792.44;5071536;28;20238;-70
2020/12/13 09:15:10;;;;;;;43.63;27.87;;;;;;;6.82;100.00;94791.47;5071613;28;20671;-70
2020/12/13 09:17:36;;;;;;;43.00;26.17;;;;;;;6.99;100.00;94798.63;5071462;28;20283;-69
2020/12/13 09:20:05;;;;;;;39.20;26.43;;;;;;;7.08;100.00;94802.06;5071435;28;20196;-69
2020/12/13 09:22:32;;;;;;;43.57;26.53;;;;;;;7.15;100.00;94803.22;5071263;28;20298;-68
2020/12/13 09:24:59;;;;;;;316.43;129.43;;;;;;;7.19;100.00;94806.00;5071240;28;20196;-69
2020/12/13 09:27:27;;;;;;;70.80;37.43;;;;;;;7.29;99.80;94800.63;5071131;28;20199;-70
2020/12/13 09:29:56;;;;;;;35.57;23.30;;;;;;;7.32;99.39;94794.91;5071068;28;20196;-70
2020/12/13 09:32:23;;;;;;;36.30;22.77;;;;;;;7.13;97.82;94796.81;5070998;28;20213;-71
2020/12/13 09:34:50;;;;;;;32.10;22.13;;;;;;;6.96;97.74;94792.22;5071422;28;20627;-71
2020/12/13 09:37:19;;;;;;;32.83;22.43;;;;;;;7.08;96.51;94794.31;5071198;28;20588;-71
2020/12/13 09:39:46;;;;;;;34.63;21.87;;;;;;;7.26;95.79;94788.28;5070976;28;20239;-69
2020/12/13 09:42:14;;;;;;;39.40;24.77;;;;;;;7.18;96.78;94783.78;5070871;28;20236;-71
2020/12/13 09:44:44;;;;;;;40.50;25.50;;;;;;;7.35;97.06;94789.16;5070913;28;20192;-70
2020/12/13 09:47:11;;;;;;;41.43;25.40;;;;;;;7.30;97.35;94791.81;5071181;28;20196;-70
2020/12/13 09:49:38;;;;;;;43.90;25.83;;;;;;;7.29;96.96;94788.47;5071190;28;20204;-71
2020/12/13 09:52:05;;;;;;;33.93;23.43;;;;;;;7.41;95.05;94794.97;5070805;28;20192;-71
2020/12/13 09:54:33;;;;;;;37.30;25.17;;;;;;;7.28;95.90;94788.75;5070932;28;20223;-70
2020/12/13 09:57:00;;;;;;;39.53;25.40;;;;;;;7.36;95.74;94795.84;5070684;28;20196;-70
2020/12/13 09:59:27;;;;;;;35.50;22.80;;;;;;;7.37;96.50;94787.03;5070858;28;20228;-71
2020/12/13 10:01:54;;;;;;;34.50;22.20;;;;;;;7.46;95.39;94780.13;5070915;28;20743;-70
2020/12/13 10:04:22;;;;;;;28.57;19.93;;;;;;;7.50;96.22;94783.66;5070622;28;20197;-71
2020/12/13 10:09:30;;;;;;;26.67;17.87;;;;;;;7.65;95.56;94780.75;5067608;28;20200;-69
2020/12/13 10:11:58;;;;;;;26.03;17.50;;;;;;;7.71;95.50;94779.59;5070498;28;20201;-70
2020/12/13 10:14:25;;;;;;;25.50;17.43;;;;;;;7.73;94.27;94771.53;5070523;28;20298;-70
2020/12/13 10:16:53;;;;;;;25.70;17.93;;;;;;;7.79;94.16;94765.94;5070407;28;20227;-70
2020/12/13 10:19:21;;;;;;;24.83;18.47;;;;;;;7.87;93.73;94766.31;5070381;28;20256;-71
2020/12/13 10:21:48;;;;;;;29.83;19.40;;;;;;;7.83;94.17;94763.53;5070336;28;20193;-72
2020/12/13 10:24:15;;;;;;;32.47;20.93;;;;;;;7.81;94.32;94765.66;5070408;28;20203;-71
2020/12/13 10:26:42;;;;;;;30.30;20.83;;;;;;;7.88;95.26;94758.25;5070373;28;20195;-71
2020/12/13 10:29:10;;;;;;;32.13;21.43;;;;;;;7.88;94.96;94760.84;5070199;28;20207;-70
2020/12/13 10:31:41;;;;;;;38.13;24.13;;;;;;;7.91;95.58;94759.50;5069999;28;20240;-70
2020/12/13 10:34:09;;;;;;;32.90;22.97;;;;;;;8.08;93.93;94764.78;5070128;28;20203;-70
2020/12/13 10:36:38;;;;;;;35.10;23.30;;;;;;;8.10;93.47;94765.25;5070042;28;20196;-71
2020/12/13 10:39:06;;;;;;;40.93;25.73;;;;;;;8.20;94.07;94762.44;5069998;28;20243;-71
2020/12/13 10:41:33;;;;;;;37.80;24.10;;;;;;;8.36;94.48;94763.63;5069959;28;20737;-71
2020/12/13 10:44:01;;;;;;;35.43;22.87;;;;;;;8.57;94.43;94762.03;5070310;28;20211;-71
2020/12/13 10:46:28;;;;;;;33.97;22.07;;;;;;;8.56;93.54;94760.53;5070429;28;20195;-69
2020/12/13 10:48:56;;;;;;;30.30;20.93;;;;;;;8.57;92.12;94758.69;5069591;28;20231;-70
2020/12/13 10:51:23;;;;;;;34.07;22.43;;;;;;;8.35;92.06;94754.31;5070270;28;20283;-71
2020/12/13 10:53:50;;;;;;;34.20;24.00;;;;;;;8.38;93.27;94750.38;5070118;28;20189;-71
2020/12/13 10:56:17;;;;;;;39.13;24.90;;;;;;;8.46;94.80;94745.25;5070365;28;20195;-69
2020/12/13 10:58:44;;;;;;;39.27;24.80;;;;;;;8.64;93.41;94754.63;5069830;28;20322;-70
2020/12/13 11:01:12;;;;;;;33.50;23.60;;;;;;;8.62;92.10;94751.53;5070144;28;20211;-72
2020/12/13 11:03:40;;;;;;;45.10;27.77;;;;;;;8.77;93.70;94744.44;5069835;28;20222;-70
2020/12/13 11:06:09;;;;;;;34.30;22.43;;;;;;;8.58;92.69;94753.22;5069901;28;20188;-70
2020/12/13 11:08:36;;;;;;;28.83;21.20;;;;;;;8.47;92.91;94756.34;5069762;28;20679;-71
2020/12/13 11:11:02;;;;;;;29.60;20.40;;;;;;;8.70;93.58;94757.06;5069839;28;20279;-69
2020/12/13 11:13:29;;;;;;;32.47;21.17;;;;;;;8.60;92.05;94758.88;5070050;28;20299;-72
2020/12/13 11:15:56;;;;;;;30.27;20.67;;;;;;;8.70;92.73;94764.84;5069773;28;20197;-70
2020/12/13 11:18:23;;;;;;;26.97;19.07;;;;;;;8.70;92.39;94762.25;5069722;28;20322;-73
2020/12/13 11:20:51;;;;;;;29.60;19.73;;;;;;;8.89;93.47;94762.78;5069735;28;20199;-72
2020/12/13 11:23:18;;;;;;;30.23;20.27;;;;;;;8.81;92.01;94760.94;5069815;28;20200;-71
2020/12/13 11:25:44;;;;;;;26.63;19.67;;;;;;;8.82;92.23;94759.84;5069675;28;20580;-69
2020/12/13 11:28:11;;;;;;;32.77;20.20;;;;;;;8.79;91.21;94752.69;5069838;28;20188;-71
2020/12/13 11:30:38;;;;;;;25.87;17.63;;;;;;;8.72;91.80;94752.38;5069459;28;20736;-71